Terminal Aerodrome Forecast
Issued by NWS

Home | Current Version | Previous Version | Graphics & Text | Print | Product List | Glossary On
Versions: 1 2 3 4 5 6 7 8 9 10 11 12 13 14 15 16 17 18
547
FTUS43 KOAX 232129 CCA
TAFCDR
TAF COR
KCDR 232129Z 2321/2418 03010KT P6SM VCSH SCT040 BKN100
      TEMPO 2321/2401 5SM -TSRA BKN040CB
     FM240200 02019G28KT P6SM -RA OVC050
     FM240600 36016G24KT 2SM -RA OVC015
     FM241300 36020G30KT P6SM VCSH OVC015=

USA.gov is the U.S. government's official web portal to all federal, state and local government web resources and services.